CW5834 Weather Reports


Display with metric or nautical units.
time (UTC)temp
F
wind
direction
speed
MPH
gust
MPH
rain 1hr
in
rain 24hr
in
rain mn
in
humidity
%
barometer
mb
20200227122522 29 225 4.0 7.0 0.00 0.10 0.00 79 1019.4
20200227121522 29 248 3.0 6.0 0.00 0.10 0.00 78 1019.3
20200227120517 29 248 3.0 6.0 0.00 0.10 0.00 79 1019.3
20200227115522 29 293 2.0 4.0 0.00 0.10 0.00 79 1019.2
20200227114522 29 0.0 0.0 0.00 0.10 0.00 78 1019.2
20200227113522 29 293 3.0 6.0 0.00 0.10 0.00 77 1019.2
20200227112522 29 293 3.0 6.0 0.00 0.10 0.00 78 1019.4
20200227111522 29 203 4.0 10.0 0.00 0.10 0.00 77 1019.2
20200227110517 29 248 2.0 9.0 0.00 0.10 0.00 80 1019.1
20200227105517 29 315 2.0 7.0 0.00 0.10 0.00 80 1019.0
20200227104522 29 315 2.0 7.0 0.00 0.10 0.00 79 1018.8
20200227103522 29 293 3.0 7.0 0.00 0.10 0.00 81 1018.7
20200227102522 29 248 3.0 8.0 0.00 0.10 0.00 83 1018.7
20200227101522 29 225 3.0 6.0 0.00 0.10 0.00 84 1018.8
20200227100521 29 270 1.0 6.0 0.00 0.10 0.00 84 1018.5
20200227095517 29 225 4.0 8.0 0.00 0.10 0.00 83 1018.5
20200227094522 29 225 2.0 4.0 0.00 0.10 0.00 82 1018.4
20200227093522 30 270 4.0 8.0 0.00 0.10 0.00 81 1018.4
20200227092522 30 270 4.0 8.0 0.00 0.10 0.00 80 1018.3
20200227091521 30 248 5.0 9.0 0.00 0.10 0.00 77 1018.2
20200227090520 30 225 5.0 8.0 0.00 0.10 0.00 76 1017.8
20200227085521 31 293 3.0 8.0 0.00 0.10 0.00 76 1017.9
20200227084517 31 293 5.0 10.0 0.00 0.10 0.00 75 1017.9
20200227083521 31 225 3.0 9.0 0.00 0.10 0.00 77 1017.9
20200227082521 31 293 4.0 10.0 0.00 0.10 0.00 77 1017.8
20200227081521 31 293 5.0 15.0 0.00 0.10 0.00 75 1017.9
20200227080522 31 293 4.0 9.0 0.00 0.10 0.00 74 1017.7
20200227075521 31 293 4.0 9.0 0.00 0.10 0.00 73 1017.7
20200227074521 31 270 3.0 6.0 0.00 0.10 0.00 74 1017.7
20200227073516 31 293 4.0 11.0 0.00 0.10 0.00 74 1017.9
20200227072521 31 225 3.0 9.0 0.00 0.10 0.00 77 1017.7
20200227071521 31 248 5.0 13.0 0.00 0.10 0.00 79 1017.8
20200227070522 31 293 6.0 12.0 0.00 0.10 0.00 81 1017.8
20200227065521 31 270 3.0 7.0 0.00 0.10 0.00 86 1017.8
20200227064522 31 270 2.0 7.0 0.00 0.10 0.00 87 1017.6
20200227063521 32 225 4.0 10.0 0.00 0.10 0.00 87 1017.4
20200227062516 32 315 3.0 5.0 0.00 0.10 0.00 86 1017.4
20200227061521 32 248 3.0 5.0 0.00 0.10 0.00 88 1017.2
20200227060521 32 225 3.0 10.0 0.00 0.10 0.00 87 1017.1
20200227055521 32 293 3.0 9.0 0.00 0.10 0.00 87 1017.0
20200227054521 32 270 6.0 11.0 0.00 0.10 0.00 88 1016.7
20200227053521 32 203 5.0 17.0 0.00 0.10 0.00 88 1016.9
20200227052516 33 293 5.0 10.0 0.00 0.10 0.00 85 1016.7
20200227051516 34 248 3.0 11.0 0.00 0.10 0.00 82 1016.4
20200227050521 34 248 2.0 6.0 0.00 0.10 0.00 81 1016.3
20200227045522 34 293 1.0 4.0 0.00 0.10 0.08 81 1016.2
20200227044521 34 270 3.0 10.0 0.00 0.10 0.08 81 1016.1
20200227043522 34 293 5.0 15.0 0.00 0.10 0.08 80 1016.2
20200227042522 34 315 2.0 11.0 0.00 0.10 0.08 80 1016.3
20200227041522 34 270 5.0 10.0 0.00 0.10 0.08 79 1016.3
20200227040516 34 293 7.0 15.0 0.00 0.10 0.08 79 1016.3
20200227035516 34 248 6.0 19.0 0.00 0.10 0.08 80 1016.0
20200227034522 34 270 6.0 13.0 0.00 0.10 0.08 83 1015.9
20200227033521 34 203 6.0 15.0 0.00 0.10 0.08 87 1015.8
20200227032521 33 180 4.0 9.0 0.00 0.10 0.08 89 1015.5
20200227031522 34 293 5.0 11.0 0.00 0.10 0.08 87 1015.3
20200227030522 35 270 5.0 12.0 0.00 0.10 0.08 84 1015.0
20200227025516 34 180 3.0 7.0 0.00 0.10 0.08 85 1015.0
20200227024517 34 225 6.0 10.0 0.00 0.10 0.08 85 1015.0
20200227023521 34 293 6.0 13.0 0.00 0.10 0.08 89 1014.8
20200227022521 36 293 4.0 8.0 0.00 0.10 0.08 86 1014.8
20200227021521 36 270 5.0 19.0 0.00 0.10 0.08 84 1014.4
20200227020522 36 225 4.0 9.0 0.00 0.10 0.08 84 1014.4
20200227015521 36 293 2.0 7.0 0.00 0.10 0.08 86 1014.2
20200227014517 36 293 5.0 12.0 0.00 0.10 0.08 85 1014.3
20200227013521 37 270 5.0 9.0 0.00 0.10 0.08 85 1014.2
20200227012522 37 293 5.0 11.0 0.00 0.10 0.08 84 1014.1
20200227011522 37 270 7.0 17.0 0.00 0.10 0.08 84 1013.9
20200227010521 38 270 3.0 9.0 0.00 0.10 0.08 85 1013.6
20200227005519 38 203 4.0 9.0 0.00 0.10 0.08 86 1013.3
20200227004521 38 203 2.0 8.0 0.00 0.10 0.08 86 1013.2
20200227003516 39 293 4.0 8.0 0.00 0.10 0.08 85 1013.0
20200227002521 39 293 6.0 11.0 0.00 0.10 0.08 83 1012.9
20200227001521 39 248 5.0 16.0 0.00 0.10 0.08 83 1012.6
20200227000521 39 293 7.0 14.0 0.00 0.10 0.08 85 1012.5
20200226235521 39 315 7.0 18.0 0.00 0.10 0.08 86 1012.2
20200226234521 40 293 5.0 10.0 0.00 0.10 0.08 88 1012.1
20200226233521 40 270 3.0 9.0 0.00 0.10 0.08 88 1012.0
20200226232516 41 270 4.0 7.0 0.00 0.10 0.08 87 1011.9
20200226231521 41 248 4.0 12.0 0.01 0.10 0.08 86 1011.7
20200226230521 42 270 2.0 7.0 0.01 0.10 0.08 88 1011.7
20200226225521 42 225 4.0 9.0 0.01 0.10 0.08 88 1011.5
20200226224521 42 248 4.0 9.0 0.01 0.10 0.08 89 1011.3
20200226223521 42 225 5.0 10.0 0.01 0.10 0.08 88 1011.2
20200226222517 43 248 4.0 8.0 0.01 0.10 0.08 88 1011.2
20200226221516 43 203 4.0 8.0 0.00 0.08 0.07 87 1010.9
20200226220521 43 225 5.0 11.0 0.00 0.08 0.07 88 1010.8
20200226215521 43 203 5.0 8.0 0.00 0.08 0.07 90 1010.8
20200226214521 43 248 3.0 12.0 0.01 0.08 0.07 91 1010.6
20200226213521 43 315 3.0 9.0 0.01 0.08 0.07 91 1010.3
20200226212521 43 248 2.0 5.0 0.01 0.08 0.07 92 1010.2
20200226211516 42 248 1.0 4.0 0.01 0.08 0.07 91 1009.9
20200226210521 42 248 3.0 6.0 0.01 0.08 0.07 91 1010.1
20200226205521 42 225 5.0 11.0 0.01 0.08 0.07 90 1010.2
20200226204521 42 180 2.0 7.0 0.01 0.07 0.06 91 1010.1
20200226203521 42 225 3.0 7.0 0.01 0.07 0.06 91 1010.3
20200226202521 43 225 3.0 7.0 0.04 0.07 0.06 91 1010.1
20200226201521 43 293 6.0 11.0 0.07 0.07 0.06 90 1009.9
20200226200515 43 270 5.0 10.0 0.07 0.07 0.06 90 1010.0
20200226195521 43 293 5.0 11.0 0.07 0.07 0.06 90 1009.9
20200226194521 44 293 7.0 15.0 0.06 0.06 0.05 89 1009.9
20200226193520 46 225 6.0 16.0 0.06 0.06 0.05 89 1010.0
20200226192521 48 225 6.0 11.0 0.04 0.04 0.03 89 1010.1
20200226191521 49 225 6.0 12.0 0.00 0.00 0.00 86 1009.8
20200226190516 49 225 5.0 12.0 0.00 0.00 0.00 84 1009.7
20200226185515 49 225 6.0 11.0 0.00 0.00 0.00 82 1009.9
20200226184520 50 225 7.0 12.0 0.00 0.00 0.00 82 1009.6
20200226183520 50 203 6.0 10.0 0.00 0.00 0.00 81 1010.0
20200226182521 50 225 8.0 13.0 0.00 0.00 0.00 80 1010.5
20200226181520 50 203 7.0 12.0 0.00 0.00 0.00 79 1010.9
20200226180521 50 203 7.0 12.0 0.00 0.00 0.00 79 1011.1
20200226175515 51 225 7.0 11.0 0.00 0.00 0.00 78 1010.9
20200226174521 51 203 7.0 14.0 0.00 0.00 0.00 78 1010.9
20200226173520 52 203 7.0 12.0 0.00 0.00 0.00 77 1011.2
20200226172520 52 203 7.0 12.0 0.00 0.00 0.00 78 1011.5
20200226171520 51 203 7.0 13.0 0.00 0.00 0.00 79 1011.4
20200226170520 51 203 8.0 15.0 0.00 0.00 0.00 79 1011.7
20200226165521 51 203 7.0 12.0 0.00 0.00 0.00 78 1011.8
20200226164515 51 203 7.0 14.0 0.00 0.00 0.00 78 1011.7
20200226163520 51 225 6.0 10.0 0.00 0.00 0.00 79 1011.7
20200226162520 51 225 6.0 9.0 0.00 0.00 0.00 78 1011.7
20200226161520 51 225 4.0 12.0 0.00 0.00 0.00 79 1012.0
20200226160520 51 203 5.0 10.0 0.00 0.00 0.00 80 1011.9
20200226155520 51 203 6.0 10.0 0.00 0.00 0.00 80 1011.9
20200226154521 51 203 4.0 9.0 0.00 0.00 0.00 81 1012.0
20200226153515 51 225 5.0 8.0 0.00 0.00 0.00 81 1011.8
20200226152521 51 203 5.0 7.0 0.00 0.00 0.00 81 1012.1
20200226151520 51 180 5.0 9.0 0.00 0.00 0.00 84 1012.2
20200226150520 51 225 5.0 10.0 0.00 0.00 0.00 82 1012.2
20200226145520 50 203 1.0 7.0 0.00 0.00 0.00 84 1012.1
20200226144520 50 225 1.0 7.0 0.00 0.00 0.00 86 1012.1
20200226143522 50 248 1.0 5.0 0.00 0.00 0.00 86 1012.0
20200226142520 49 0.0 0.0 0.00 0.00 0.00 87 1012.0
20200226141522 49 0.0 0.0 0.00 0.00 0.00 88 1012.1
20200226140522 48 0.0 2.0 0.00 0.00 0.00 89 1012.1
20200226135522 48 0.0 0.0 0.00 0.00 0.00 90 1012.3
20200226134517 47 0.0 0.0 0.00 0.00 0.00 91 1012.4
20200226133517 47 0.0 0.0 0.00 0.00 0.00 91 1012.5
20200226132522 47 0.0 0.0 0.00 0.00 0.00 91 1012.6
20200226131522 47 0.0 0.0 0.00 0.00 0.00 91 1012.5
20200226130522 46 0.0 0.0 0.00 0.00 0.00 93 1012.3
20200226125522 45 0.0 0.0 0.00 0.00 0.00 93 1012.3
20200226124522 45 0.0 0.0 0.00 0.02 0.00 93 1012.1
20200226123517 45 0.0 0.0 0.00 0.04 0.00 93 1012.2